createdAt,value
2018-02-21T00:02:02.528Z,-0.75
2018-02-21T00:04:32.417Z,-0.70
2018-02-21T00:07:00.839Z,-0.64
2018-02-21T00:09:29.209Z,-0.59
2018-02-21T00:11:57.818Z,-0.64
2018-02-21T00:14:26.295Z,-0.52
2018-02-21T00:16:54.638Z,-0.54
2018-02-21T00:19:23.867Z,-0.55
2018-02-21T00:21:52.215Z,-0.53
2018-02-21T00:24:20.585Z,-0.64
2018-02-21T00:26:48.962Z,-0.66
2018-02-21T00:29:17.314Z,-0.64
2018-02-21T00:31:45.687Z,-0.56
2018-02-21T00:34:14.049Z,-0.57
2018-02-21T00:36:42.419Z,-0.53
2018-02-21T00:39:10.824Z,-0.52
2018-02-21T00:41:39.211Z,-0.48
2018-02-21T00:44:07.560Z,-0.63
2018-02-21T00:46:35.952Z,-0.59
2018-02-21T00:49:04.303Z,-0.56
2018-02-21T00:51:32.651Z,-0.57
2018-02-21T00:54:01.029Z,-0.52
2018-02-21T00:56:29.449Z,-0.63
2018-02-21T00:58:57.826Z,-0.81
2018-02-21T01:01:26.206Z,-0.67
2018-02-21T01:03:54.574Z,-0.59
2018-02-21T01:06:22.930Z,-0.51
2018-02-21T01:08:51.310Z,-0.52
2018-02-21T01:11:19.679Z,-0.51
2018-02-21T01:13:48.040Z,-0.52
2018-02-21T01:16:16.414Z,-0.51
2018-02-21T01:18:44.773Z,-0.47
2018-02-21T01:21:13.124Z,-0.48
2018-02-21T01:23:41.507Z,-0.53
2018-02-21T01:26:09.884Z,-0.46
2018-02-21T01:28:38.238Z,-0.55
2018-02-21T01:31:06.618Z,-0.54
2018-02-21T01:33:34.986Z,-0.50
2018-02-21T01:36:03.358Z,-0.49
2018-02-21T01:38:31.727Z,-0.50
2018-02-21T01:41:00.090Z,-0.49
2018-02-21T01:43:28.441Z,-0.51
2018-02-21T01:45:56.821Z,-0.51
2018-02-21T01:48:25.174Z,-0.49
2018-02-21T01:50:53.568Z,-0.55
2018-02-21T01:53:21.953Z,-0.49
2018-02-21T01:55:50.310Z,-0.46
2018-02-21T01:58:18.675Z,-0.41
2018-02-21T02:00:47.047Z,-0.46
2018-02-21T02:03:15.418Z,-0.52
2018-02-21T02:05:43.783Z,-0.50
2018-02-21T02:08:12.214Z,-0.51
2018-02-21T02:10:40.595Z,-0.53
2018-02-21T02:13:08.946Z,-0.59
2018-02-21T02:15:37.306Z,-0.57
2018-02-21T02:18:05.668Z,-0.57
2018-02-21T02:20:34.026Z,-0.56
2018-02-21T02:23:02.386Z,-0.58
2018-02-21T02:25:30.740Z,-0.50
2018-02-21T02:27:59.102Z,-0.55
2018-02-21T02:30:27.520Z,-0.53
2018-02-21T02:32:55.878Z,-0.56
2018-02-21T02:35:24.231Z,-0.49
2018-02-21T02:37:52.593Z,-0.48
2018-02-21T02:40:20.963Z,-0.50
2018-02-21T02:42:49.319Z,-0.54
2018-02-21T02:45:17.687Z,-0.56
2018-02-21T02:47:46.044Z,-0.60
2018-02-21T02:50:14.435Z,-0.61
2018-02-21T02:52:42.802Z,-0.58
2018-02-21T02:55:11.201Z,-0.51
2018-02-21T02:57:39.560Z,-0.54
2018-02-21T03:00:07.922Z,-0.54
2018-02-21T03:02:36.278Z,-0.52
2018-02-21T03:05:04.632Z,-0.52
2018-02-21T03:07:33.013Z,-0.55
2018-02-21T03:10:01.354Z,-0.63
2018-02-21T03:12:29.712Z,-0.61
2018-02-21T03:14:58.127Z,-0.49
2018-02-21T03:17:26.504Z,-0.53
2018-02-21T03:19:54.863Z,-0.50
2018-02-21T03:22:23.282Z,-0.42
2018-02-21T03:24:51.622Z,-0.45
2018-02-21T03:27:19.974Z,-0.48
2018-02-21T03:29:48.338Z,-0.51
2018-02-21T03:32:21.543Z,-0.54
2018-02-21T03:34:49.965Z,-0.57
2018-02-21T03:37:18.315Z,-0.59
2018-02-21T03:39:46.672Z,-0.50
2018-02-21T03:42:15.052Z,-0.47
2018-02-21T03:44:43.407Z,-0.50
2018-02-21T03:47:11.750Z,-0.51
2018-02-21T03:49:40.223Z,-0.52
2018-02-21T03:52:08.578Z,-0.53
2018-02-21T03:54:36.926Z,-0.59
2018-02-21T03:57:05.296Z,-0.56
2018-02-21T03:59:33.677Z,-0.54
2018-02-21T04:02:02.028Z,-0.47
2018-02-21T04:04:30.393Z,-0.45
2018-02-21T04:06:58.741Z,-0.50
2018-02-21T04:09:27.159Z,-0.48
2018-02-21T04:11:55.520Z,-0.43
2018-02-21T04:14:23.875Z,-0.46
2018-02-21T04:16:52.227Z,-0.48
2018-02-21T04:19:20.591Z,-0.44
2018-02-21T04:21:48.987Z,-0.44
2018-02-21T04:24:17.343Z,-0.52
2018-02-21T04:26:45.706Z,-0.41
2018-02-21T04:29:14.082Z,-0.47
2018-02-21T04:31:42.460Z,-0.47
2018-02-21T04:34:10.825Z,-0.51
2018-02-21T04:36:39.181Z,-0.56
2018-02-21T04:39:07.538Z,-0.55
2018-02-21T04:41:35.913Z,-0.47
2018-02-21T04:44:04.271Z,-0.51
2018-02-21T04:46:32.634Z,-0.55
2018-02-21T04:49:01.010Z,-0.54
2018-02-21T04:51:29.394Z,-0.50
2018-02-21T04:53:57.745Z,-0.55
2018-02-21T04:59:38.828Z,-0.62
2018-02-21T05:02:07.329Z,-0.65
2018-02-21T05:04:35.681Z,-0.67
2018-02-21T05:07:04.027Z,-0.73
2018-02-21T05:09:32.392Z,-0.79
2018-02-21T05:12:00.733Z,-0.74
2018-02-21T05:14:29.086Z,-0.81
2018-02-21T05:16:57.447Z,-0.85
2018-02-21T05:19:25.795Z,-0.83
2018-02-21T05:21:54.134Z,-0.89
2018-02-21T05:24:22.515Z,-0.83
2018-02-21T05:26:50.862Z,-0.76
2018-02-21T05:29:19.214Z,-0.86
2018-02-21T05:31:47.576Z,-0.86
2018-02-21T05:34:15.928Z,-0.80
2018-02-21T05:36:44.285Z,-0.82
2018-02-21T05:39:12.646Z,-0.86
2018-02-21T05:41:41.004Z,-0.74
2018-02-21T05:44:09.368Z,-0.80
2018-02-21T05:46:37.737Z,-0.77
2018-02-21T05:49:06.109Z,-0.86
2018-02-21T05:51:34.473Z,-0.85
2018-02-21T05:54:02.846Z,-0.85
2018-02-21T05:56:31.190Z,-0.99
2018-02-21T05:58:59.549Z,-0.91
2018-02-21T06:01:27.910Z,-0.96
2018-02-21T06:03:56.269Z,-0.96
2018-02-21T06:06:24.624Z,-0.95
2018-02-21T06:08:53.024Z,-1.02
2018-02-21T06:11:21.378Z,-0.96
2018-02-21T06:13:49.725Z,-0.95
2018-02-21T06:16:18.140Z,-1.10
2018-02-21T06:18:46.502Z,-1.15
2018-02-21T06:21:14.867Z,-1.14
2018-02-21T06:23:43.231Z,-1.10
2018-02-21T06:26:11.592Z,-1.05
2018-02-21T06:28:39.943Z,-1.12
2018-02-21T06:31:08.307Z,-1.14
2018-02-21T06:33:36.687Z,-1.11
2018-02-21T06:36:05.043Z,-1.07
2018-02-21T06:38:33.413Z,-1.06
2018-02-21T06:41:01.784Z,-0.88
2018-02-21T06:43:30.142Z,-0.99
2018-02-21T06:45:58.507Z,-1.00
2018-02-21T06:48:26.866Z,-1.02
2018-02-21T06:50:55.246Z,-0.95
2018-02-21T06:53:23.614Z,-0.88
2018-02-21T06:55:51.974Z,-0.95
2018-02-21T06:58:20.353Z,-1.01
2018-02-21T07:00:48.714Z,-1.01
2018-02-21T07:03:17.076Z,-1.00
2018-02-21T07:05:45.491Z,-1.02
2018-02-21T07:08:13.870Z,-0.90
2018-02-21T07:10:42.223Z,-0.75
2018-02-21T07:13:10.586Z,-0.77
2018-02-21T07:15:38.990Z,-0.72
2018-02-21T07:18:07.326Z,-0.67
2018-02-21T07:20:35.692Z,-0.71
2018-02-21T07:23:04.072Z,-0.64
2018-02-21T07:25:32.442Z,-0.68
2018-02-21T07:28:00.807Z,-0.85
2018-02-21T07:30:29.179Z,-0.80
2018-02-21T07:32:57.538Z,-0.62
2018-02-21T07:35:25.910Z,-0.77
2018-02-21T07:37:54.278Z,-0.71
2018-02-21T07:40:22.641Z,-0.74
2018-02-21T07:42:50.996Z,-0.85
2018-02-21T07:45:19.365Z,-0.81
2018-02-21T07:47:47.781Z,-0.66
2018-02-21T07:50:16.144Z,-0.68
2018-02-21T07:52:44.509Z,-0.73
2018-02-21T07:55:12.873Z,-0.60
2018-02-21T07:57:41.256Z,-0.63
2018-02-21T08:00:09.669Z,-0.46
2018-02-21T08:02:38.019Z,-0.35
2018-02-21T08:05:06.412Z,-0.28
2018-02-21T08:07:34.788Z,-0.32
2018-02-21T08:10:03.141Z,-0.50
2018-02-21T08:12:31.494Z,-0.42
2018-02-21T08:14:59.858Z,-0.22
2018-02-21T08:17:28.236Z,-0.14
2018-02-21T08:19:56.616Z,-0.17
2018-02-21T08:22:24.974Z,0.01
2018-02-21T08:24:53.327Z,0.03
2018-02-21T08:27:21.741Z,0.29
2018-02-21T08:29:50.133Z,0.15
2018-02-21T08:32:18.502Z,0.12
2018-02-21T08:34:46.859Z,0.30
2018-02-21T08:37:15.232Z,0.33
2018-02-21T08:39:43.617Z,0.43
2018-02-21T08:42:11.968Z,0.58
2018-02-21T08:44:40.330Z,0.46
2018-02-21T08:47:08.688Z,0.45
2018-02-21T08:49:37.659Z,0.66
2018-02-21T08:52:06.051Z,0.72
2018-02-21T08:54:34.390Z,0.77
2018-02-21T08:57:02.742Z,0.77
2018-02-21T08:59:31.114Z,0.42
2018-02-21T09:02:00.422Z,0.72
2018-02-21T09:04:28.776Z,0.66
2018-02-21T09:06:57.134Z,0.95
2018-02-21T09:09:25.491Z,0.94
2018-02-21T09:11:53.846Z,1.11
2018-02-21T09:14:22.222Z,1.19
2018-02-21T09:16:50.573Z,1.08
2018-02-21T09:19:18.956Z,1.28
2018-02-21T09:21:47.327Z,0.87
2018-02-21T09:24:15.675Z,1.27
2018-02-21T09:26:44.025Z,1.23
2018-02-21T09:29:12.422Z,1.07
2018-02-21T09:31:40.739Z,0.84
2018-02-21T09:34:09.155Z,0.94
2018-02-21T09:36:37.522Z,1.31
2018-02-21T09:39:05.891Z,1.08
2018-02-21T09:41:34.234Z,1.01
2018-02-21T09:44:02.587Z,1.10
2018-02-21T09:46:30.931Z,0.90
2018-02-21T09:48:59.331Z,0.69
2018-02-21T09:51:27.710Z,1.08
2018-02-21T09:53:56.071Z,1.26
2018-02-21T09:56:24.436Z,1.67
2018-02-21T09:58:52.791Z,2.19
2018-02-21T10:01:21.140Z,2.18
2018-02-21T10:03:49.474Z,2.22
2018-02-21T10:06:17.835Z,2.54
2018-02-21T10:08:46.202Z,2.75
2018-02-21T10:11:14.534Z,2.58
2018-02-21T10:13:42.890Z,2.65
2018-02-21T10:16:11.232Z,2.22
2018-02-21T10:18:39.566Z,2.08
2018-02-21T10:21:07.938Z,2.11
2018-02-21T10:23:36.283Z,2.27
2018-02-21T10:26:04.618Z,2.84
2018-02-21T10:28:32.976Z,2.90
2018-02-21T10:31:01.329Z,3.06
2018-02-21T10:33:29.687Z,3.20
2018-02-21T10:35:58.043Z,3.03
2018-02-21T10:38:26.385Z,2.79
2018-02-21T10:40:54.735Z,2.83
2018-02-21T10:43:23.131Z,2.52
2018-02-21T10:45:51.459Z,2.38
2018-02-21T10:48:19.995Z,2.43
2018-02-21T10:50:48.347Z,2.93
2018-02-21T10:53:16.686Z,3.41
2018-02-21T10:55:45.030Z,3.76
2018-02-21T10:58:13.384Z,3.11
2018-02-21T11:00:47.267Z,3.92
2018-02-21T11:03:15.623Z,4.10
2018-02-21T11:05:44.075Z,4.20
2018-02-21T11:08:12.415Z,4.76
2018-02-21T11:10:40.765Z,4.44
2018-02-21T11:13:09.110Z,4.18
2018-02-21T11:15:37.446Z,4.16
2018-02-21T11:18:05.785Z,4.05
2018-02-21T11:20:34.362Z,4.54
2018-02-21T11:23:02.740Z,4.83
2018-02-21T11:25:31.084Z,4.09
2018-02-21T11:27:59.438Z,4.28
2018-02-21T11:30:27.782Z,5.00
2018-02-21T11:35:47.864Z,5.48
2018-02-21T11:38:16.198Z,7.07
2018-02-21T11:40:44.576Z,6.13
2018-02-21T11:43:12.936Z,5.48
2018-02-21T11:45:41.316Z,5.86
2018-02-21T11:48:09.664Z,5.86
2018-02-21T11:50:38.042Z,6.28
2018-02-21T11:53:06.384Z,7.20
2018-02-21T11:55:34.728Z,7.74
2018-02-21T11:58:03.093Z,7.27
2018-02-21T12:00:31.451Z,6.18
2018-02-21T12:02:59.811Z,7.36
2018-02-21T12:05:28.210Z,10.05
2018-02-21T12:07:56.582Z,9.13
2018-02-21T12:10:24.923Z,8.89
2018-02-21T12:12:53.307Z,8.24
2018-02-21T12:15:21.650Z,9.71
2018-02-21T12:17:50.014Z,10.27
2018-02-21T12:20:18.366Z,12.25
2018-02-21T12:22:46.785Z,11.54
2018-02-21T12:25:15.237Z,12.31
2018-02-21T12:27:43.614Z,13.78
2018-02-21T12:30:11.966Z,12.38
2018-02-21T12:32:40.696Z,11.45
2018-02-21T12:35:09.138Z,9.95
2018-02-21T12:37:38.789Z,10.41
2018-02-21T12:40:07.143Z,11.19
2018-02-21T12:42:35.489Z,11.59
2018-02-21T12:45:03.835Z,12.00
2018-02-21T12:47:32.181Z,10.42
2018-02-21T12:50:00.539Z,11.35
2018-02-21T12:52:28.881Z,12.17
2018-02-21T12:54:57.239Z,9.10
2018-02-21T12:57:25.577Z,8.44
2018-02-21T12:59:53.935Z,10.35
2018-02-21T13:02:22.279Z,12.97
2018-02-21T13:04:50.626Z,14.11
2018-02-21T13:07:19.020Z,12.66
2018-02-21T13:09:47.370Z,12.02
2018-02-21T13:12:15.714Z,12.63
2018-02-21T13:14:44.078Z,14.53
2018-02-21T13:17:12.432Z,15.30
2018-02-21T13:19:40.782Z,14.26
2018-02-21T13:22:09.159Z,12.55
2018-02-21T13:24:37.037Z,10.63
2018-02-21T13:27:05.291Z,10.31
2018-02-21T13:29:33.635Z,8.32
2018-02-21T13:32:02.055Z,7.02
2018-02-21T13:34:30.395Z,6.64
2018-02-21T13:36:58.746Z,6.50
2018-02-21T13:39:27.083Z,6.14
2018-02-21T13:41:55.422Z,5.86
2018-02-21T13:44:23.860Z,5.08
2018-02-21T13:46:52.216Z,4.81
2018-02-21T13:49:20.560Z,5.01
2018-02-21T13:51:48.914Z,5.14
2018-02-21T13:54:17.275Z,5.27
2018-02-21T13:56:45.618Z,5.70
2018-02-21T13:59:13.957Z,5.28
2018-02-21T14:01:42.326Z,5.23
2018-02-21T14:04:10.701Z,5.10
2018-02-21T14:06:39.046Z,4.59
2018-02-21T14:09:07.411Z,4.43
2018-02-21T14:11:35.743Z,4.44
2018-02-21T14:14:04.086Z,4.49
2018-02-21T14:16:32.433Z,4.35
2018-02-21T14:19:00.797Z,4.30
2018-02-21T14:21:29.139Z,4.09
2018-02-21T14:23:57.502Z,4.17
2018-02-21T14:26:25.846Z,4.11
2018-02-21T14:28:54.193Z,4.20
2018-02-21T14:31:22.535Z,4.06
2018-02-21T14:33:50.914Z,4.17
2018-02-21T14:36:19.253Z,4.06
2018-02-21T14:38:47.614Z,4.03
2018-02-21T14:41:15.952Z,3.96
2018-02-21T14:43:44.326Z,3.99
2018-02-21T14:46:12.669Z,3.88
2018-02-21T14:48:41.026Z,3.91
2018-02-21T14:51:09.367Z,3.91
2018-02-21T14:53:37.728Z,4.08
2018-02-21T14:56:06.092Z,4.03
2018-02-21T14:58:34.442Z,3.72
2018-02-21T15:01:02.791Z,3.63
2018-02-21T15:03:31.149Z,3.72
2018-02-21T15:05:59.511Z,3.59
2018-02-21T15:08:28.006Z,3.54
2018-02-21T15:10:56.353Z,3.68
2018-02-21T15:13:24.704Z,3.54
2018-02-21T15:15:53.060Z,3.23
2018-02-21T15:18:21.400Z,3.34
2018-02-21T15:20:49.797Z,3.40
2018-02-21T15:23:18.143Z,3.29
2018-02-21T15:25:46.509Z,3.45
2018-02-21T15:28:14.875Z,3.21
2018-02-21T15:30:43.232Z,2.93
2018-02-21T15:33:11.588Z,3.13
2018-02-21T15:35:39.975Z,3.00
2018-02-21T15:38:08.300Z,2.70
2018-02-21T15:40:36.647Z,2.84
2018-02-21T15:43:04.988Z,2.91
2018-02-21T15:45:33.358Z,2.83
2018-02-21T15:48:01.715Z,2.74
2018-02-21T15:50:30.099Z,2.78
2018-02-21T15:52:58.440Z,2.67
2018-02-21T15:55:26.890Z,2.54
2018-02-21T15:57:55.226Z,2.59
2018-02-21T16:00:23.584Z,2.74
2018-02-21T16:02:51.971Z,2.75
2018-02-21T16:05:20.404Z,2.54
2018-02-21T16:07:48.747Z,2.55
2018-02-21T16:10:17.160Z,2.53
2018-02-21T16:12:45.511Z,2.48
2018-02-21T16:15:13.874Z,2.36
2018-02-21T16:17:42.214Z,2.28
2018-02-21T16:20:10.602Z,2.27
2018-02-21T16:22:38.951Z,2.19
2018-02-21T16:25:07.319Z,2.06
2018-02-21T16:27:35.672Z,1.95
2018-02-21T16:30:04.024Z,1.97
2018-02-21T16:32:32.386Z,2.03
2018-02-21T16:35:00.738Z,1.99
2018-02-21T16:37:29.828Z,1.99
2018-02-21T16:39:58.174Z,1.92
2018-02-21T16:42:26.538Z,1.89
2018-02-21T16:44:54.893Z,1.82
2018-02-21T16:47:23.274Z,1.71
2018-02-21T16:49:51.620Z,1.71
2018-02-21T16:52:20.008Z,1.79
2018-02-21T16:54:48.365Z,1.70
2018-02-21T16:57:16.735Z,1.59
2018-02-21T16:59:45.079Z,1.58
2018-02-21T17:02:13.458Z,1.57
2018-02-21T17:04:41.810Z,1.53
2018-02-21T17:07:10.218Z,1.53
2018-02-21T17:09:38.568Z,1.47
2018-02-21T17:12:06.920Z,1.51
2018-02-21T17:14:35.304Z,1.51
2018-02-21T17:17:03.650Z,1.46
2018-02-21T17:19:32.016Z,1.53
2018-02-21T17:22:00.367Z,1.42
2018-02-21T17:24:28.747Z,1.43
2018-02-21T17:26:57.141Z,1.30
2018-02-21T17:29:25.507Z,1.34
2018-02-21T17:31:53.866Z,1.41
2018-02-21T17:34:22.223Z,1.37
2018-02-21T17:36:50.592Z,1.37
2018-02-21T17:39:18.988Z,1.35
2018-02-21T17:41:47.346Z,1.35
2018-02-21T17:44:15.690Z,1.30
2018-02-21T17:46:44.071Z,1.34
2018-02-21T17:49:12.462Z,1.29
2018-02-21T17:51:41.006Z,1.33
2018-02-21T17:54:09.346Z,1.38
2018-02-21T17:56:37.730Z,1.35
2018-02-21T17:59:06.082Z,1.32
2018-02-21T18:01:34.446Z,1.46
2018-02-21T18:04:02.806Z,1.52
2018-02-21T18:06:31.186Z,1.51
2018-02-21T18:08:59.543Z,1.52
2018-02-21T18:11:27.931Z,1.56
2018-02-21T18:13:56.688Z,1.53
2018-02-21T18:16:25.113Z,1.56
2018-02-21T18:18:53.471Z,1.52
2018-02-21T18:21:27.670Z,1.54
2018-02-21T18:23:56.027Z,1.55
2018-02-21T18:26:24.378Z,1.49
2018-02-21T18:28:52.749Z,1.49
2018-02-21T18:31:21.110Z,1.41
2018-02-21T18:33:49.483Z,1.54
2018-02-21T18:36:17.861Z,1.54
2018-02-21T18:38:46.230Z,1.54
2018-02-21T18:41:14.580Z,1.49
2018-02-21T18:43:42.952Z,1.40
2018-02-21T18:46:11.303Z,1.41
2018-02-21T18:48:39.666Z,1.28
2018-02-21T18:51:08.026Z,1.09
2018-02-21T18:53:36.434Z,1.12
2018-02-21T18:56:04.788Z,1.16
2018-02-21T18:58:33.157Z,1.22
2018-02-21T19:01:01.526Z,1.32
2018-02-21T19:03:29.874Z,1.30
2018-02-21T19:05:58.266Z,1.34
2018-02-21T19:08:26.611Z,1.29
2018-02-21T19:10:55.041Z,1.30
2018-02-21T19:13:23.387Z,1.24
2018-02-21T19:15:51.755Z,1.26
2018-02-21T19:18:20.146Z,1.20
2018-02-21T19:20:48.518Z,1.20
2018-02-21T19:23:16.883Z,1.17
2018-02-21T19:25:45.255Z,1.09
2018-02-21T19:28:13.610Z,1.05
2018-02-21T19:30:41.979Z,0.97
2018-02-21T19:33:10.366Z,0.93
2018-02-21T19:35:38.722Z,0.98
2018-02-21T19:38:07.088Z,0.91
2018-02-21T19:40:35.436Z,0.93
2018-02-21T19:43:03.941Z,0.90
2018-02-21T19:45:32.285Z,0.79
2018-02-21T19:48:00.645Z,0.83
2018-02-21T19:50:29.046Z,0.88
2018-02-21T19:52:57.391Z,0.82
2018-02-21T19:55:25.760Z,0.76
2018-02-21T19:57:54.107Z,0.80
2018-02-21T20:00:22.490Z,0.73
2018-02-21T20:02:50.831Z,0.71
2018-02-21T20:05:19.243Z,0.68
2018-02-21T20:07:47.612Z,0.64
2018-02-21T20:10:16.003Z,0.53
2018-02-21T20:12:44.358Z,0.51
2018-02-21T20:15:12.708Z,0.34
2018-02-21T20:17:41.074Z,0.38
2018-02-21T20:20:09.419Z,0.35
2018-02-21T20:22:37.774Z,0.24
2018-02-21T20:25:06.122Z,0.21
2018-02-21T20:27:34.494Z,0.19
2018-02-21T20:30:02.851Z,0.20
2018-02-21T20:32:31.215Z,0.16
2018-02-21T20:34:59.571Z,0.19
2018-02-21T20:37:27.943Z,0.11
2018-02-21T20:39:56.296Z,0.12
2018-02-21T20:42:24.669Z,0.10
2018-02-21T20:44:53.035Z,0.15
2018-02-21T20:47:21.384Z,0.07
2018-02-21T20:49:49.735Z,0.01
2018-02-21T20:52:18.091Z,-0.01
2018-02-21T20:54:46.455Z,-0.08
2018-02-21T20:57:14.882Z,-0.09
2018-02-21T20:59:43.246Z,-0.15
2018-02-21T21:02:11.637Z,-0.10
2018-02-21T21:04:39.996Z,-0.18
2018-02-21T21:07:08.363Z,-0.22
2018-02-21T21:09:36.718Z,-0.23
2018-02-21T21:12:05.072Z,-0.22
2018-02-21T21:14:33.426Z,-0.18
2018-02-21T21:17:01.833Z,-0.21
2018-02-21T21:19:30.188Z,-0.20
2018-02-21T21:21:58.537Z,-0.25
2018-02-21T21:24:26.898Z,-0.38
2018-02-21T21:26:55.312Z,-0.30
2018-02-21T21:29:23.675Z,-0.29
2018-02-21T21:31:52.035Z,-0.40
2018-02-21T21:34:20.402Z,-0.47
2018-02-21T21:36:48.772Z,-0.40
2018-02-21T21:39:17.146Z,-0.38
2018-02-21T21:41:45.505Z,-0.44
2018-02-21T21:44:13.906Z,-0.49
2018-02-21T21:46:42.253Z,-0.39
2018-02-21T21:49:10.632Z,-0.35
2018-02-21T21:51:38.993Z,-0.34
2018-02-21T21:54:07.359Z,-0.28
2018-02-21T21:56:35.712Z,-0.28
2018-02-21T21:59:04.077Z,-0.35
2018-02-21T22:01:32.632Z,-0.26
2018-02-21T22:04:01.007Z,-0.26
2018-02-21T22:06:29.391Z,-0.36
2018-02-21T22:08:57.763Z,-0.35
2018-02-21T22:11:26.114Z,-0.35
2018-02-21T22:13:54.478Z,-0.37
2018-02-21T22:16:22.835Z,-0.36
2018-02-21T22:18:51.202Z,-0.41
2018-02-21T22:21:19.562Z,-0.53
2018-02-21T22:23:47.938Z,-0.52
2018-02-21T22:26:16.290Z,-0.52
2018-02-21T22:28:44.650Z,-0.59
2018-02-21T22:31:13.004Z,-0.66
2018-02-21T22:33:41.373Z,-0.55
2018-02-21T22:36:09.746Z,-0.50
2018-02-21T22:38:38.131Z,-0.43
2018-02-21T22:41:06.498Z,-0.53
2018-02-21T22:43:34.857Z,-0.57
2018-02-21T22:46:03.244Z,-0.58
2018-02-21T22:48:31.599Z,-0.51
2018-02-21T22:50:59.960Z,-0.62
2018-02-21T22:53:28.318Z,-0.63
2018-02-21T22:55:56.678Z,-0.75
2018-02-21T22:58:25.043Z,-0.87
2018-02-21T23:00:53.402Z,-0.84
2018-02-21T23:03:21.746Z,-0.86
2018-02-21T23:05:50.110Z,-0.80
2018-02-21T23:08:18.596Z,-0.85
2018-02-21T23:10:46.967Z,-0.86
2018-02-21T23:13:15.318Z,-0.85
2018-02-21T23:15:43.684Z,-0.93
2018-02-21T23:18:12.040Z,-0.90
2018-02-21T23:20:40.387Z,-0.95
2018-02-21T23:23:08.755Z,-0.92
2018-02-21T23:25:37.187Z,-1.00
2018-02-21T23:28:05.547Z,-1.01
2018-02-21T23:30:33.910Z,-1.04
2018-02-21T23:33:02.270Z,-1.00
2018-02-21T23:35:30.663Z,-1.09
2018-02-21T23:37:59.062Z,-1.00
2018-02-21T23:40:27.394Z,-1.03
2018-02-21T23:42:55.754Z,-1.01
2018-02-21T23:45:24.115Z,-1.06
2018-02-21T23:47:52.483Z,-1.07
2018-02-21T23:50:20.830Z,-1.02
2018-02-21T23:52:49.192Z,-1.06
2018-02-21T23:55:17.545Z,-1.09
2018-02-21T23:57:45.906Z,-1.20
